sensor_id;sensor_type;location;lat;lon;timestamp;pressure;altitude;pressure_sealevel;temperature
69704;BMP280;56967;43.538;-5.646;2023-04-25T00:01:21;99517.94;;;19.40
69704;BMP280;56967;43.538;-5.646;2023-04-25T00:03:49;99533.31;;;19.21
69704;BMP280;56967;43.538;-5.646;2023-04-25T00:06:15;99537.00;;;19.47
69704;BMP280;56967;43.538;-5.646;2023-04-25T00:08:41;99579.81;;;19.51
69704;BMP280;56967;43.538;-5.646;2023-04-25T00:11:06;99612.25;;;19.52
69704;BMP280;56967;43.538;-5.646;2023-04-25T00:13:32;99612.66;;;19.60
69704;BMP280;56967;43.538;-5.646;2023-04-25T00:15:58;99655.75;;;19.62
69704;BMP280;56967;43.538;-5.646;2023-04-25T00:18:23;99658.34;;;19.53
69704;BMP280;56967;43.538;-5.646;2023-04-25T00:20:49;99624.09;;;19.60
69704;BMP280;56967;43.538;-5.646;2023-04-25T00:23:16;99578.59;;;19.57
69704;BMP280;56967;43.538;-5.646;2023-04-25T00:25:47;99617.03;;;19.78
69704;BMP280;56967;43.538;-5.646;2023-04-25T00:28:14;99664.81;;;19.96
69704;BMP280;56967;43.538;-5.646;2023-04-25T00:30:40;99676.28;;;19.97
69704;BMP280;56967;43.538;-5.646;2023-04-25T00:33:05;99724.03;;;19.85
69704;BMP280;56967;43.538;-5.646;2023-04-25T00:35:31;99771.25;;;19.84
69704;BMP280;56967;43.538;-5.646;2023-04-25T00:37:57;99776.31;;;19.86
69704;BMP280;56967;43.538;-5.646;2023-04-25T00:40:22;99787.34;;;19.93
69704;BMP280;56967;43.538;-5.646;2023-04-25T00:42:53;99790.91;;;19.88
69704;BMP280;56967;43.538;-5.646;2023-04-25T00:45:19;99811.25;;;19.98
69704;BMP280;56967;43.538;-5.646;2023-04-25T00:47:45;99819.16;;;19.89
69704;BMP280;56967;43.538;-5.646;2023-04-25T00:50:12;99793.69;;;19.83
69704;BMP280;56967;43.538;-5.646;2023-04-25T00:52:38;99828.94;;;19.94
69704;BMP280;56967;43.538;-5.646;2023-04-25T00:55:06;99794.28;;;19.67
69704;BMP280;56967;43.538;-5.646;2023-04-25T00:57:31;99710.50;;;19.59
69704;BMP280;56967;43.538;-5.646;2023-04-25T00:59:57;99702.84;;;19.66
69704;BMP280;56967;43.538;-5.646;2023-04-25T01:02:23;99722.13;;;19.63
69704;BMP280;56967;43.538;-5.646;2023-04-25T01:04:50;99746.75;;;19.60
69704;BMP280;56967;43.538;-5.646;2023-04-25T01:07:16;99780.28;;;19.75
69704;BMP280;56967;43.538;-5.646;2023-04-25T01:09:41;99785.38;;;19.85
69704;BMP280;56967;43.538;-5.646;2023-04-25T01:12:07;99804.44;;;19.78
69704;BMP280;56967;43.538;-5.646;2023-04-25T01:14:33;99809.50;;;19.93
69704;BMP280;56967;43.538;-5.646;2023-04-25T01:16:58;99789.31;;;19.87
69704;BMP280;56967;43.538;-5.646;2023-04-25T01:19:24;99830.13;;;19.88
69704;BMP280;56967;43.538;-5.646;2023-04-25T01:21:50;99844.44;;;19.92
69704;BMP280;56967;43.538;-5.646;2023-04-25T01:24:16;99859.16;;;19.89
69704;BMP280;56967;43.538;-5.646;2023-04-25T01:26:43;99857.59;;;20.02
69704;BMP280;56967;43.538;-5.646;2023-04-25T01:29:18;99859.16;;;19.89
69704;BMP280;56967;43.538;-5.646;2023-04-25T01:31:45;99880.69;;;20.06
69704;BMP280;56967;43.538;-5.646;2023-04-25T01:34:12;99878.84;;;19.93
69704;BMP280;56967;43.538;-5.646;2023-04-25T01:36:37;99858.59;;;19.79
69704;BMP280;56967;43.538;-5.646;2023-04-25T01:39:03;99860.94;;;19.80
69704;BMP280;56967;43.538;-5.646;2023-04-25T01:41:29;99813.03;;;19.75
69704;BMP280;56967;43.538;-5.646;2023-04-25T01:43:55;99855.22;;;19.87
69704;BMP280;56967;43.538;-5.646;2023-04-25T01:46:21;99967.56;;;19.99
69704;BMP280;56967;43.538;-5.646;2023-04-25T01:48:47;99972.69;;;20.22
69704;BMP280;56967;43.538;-5.646;2023-04-25T01:51:12;99982.56;;;20.22
69704;BMP280;56967;43.538;-5.646;2023-04-25T01:53:39;99977.84;;;20.19
69704;BMP280;56967;43.538;-5.646;2023-04-25T01:56:05;99952.50;;;20.16
69704;BMP280;56967;43.538;-5.646;2023-04-25T01:58:31;99988.78;;;20.17
69704;BMP280;56967;43.538;-5.646;2023-04-25T02:00:56;99963.88;;;20.22
69704;BMP280;56967;43.538;-5.646;2023-04-25T02:03:22;99902.13;;;19.74
69704;BMP280;56967;43.538;-5.646;2023-04-25T02:05:47;99713.09;;;19.37
69704;BMP280;56967;43.538;-5.646;2023-04-25T02:08:13;99601.84;;;19.42
69704;BMP280;56967;43.538;-5.646;2023-04-25T02:10:39;99631.06;;;19.48
69704;BMP280;56967;43.538;-5.646;2023-04-25T02:13:05;99705.00;;;20.00
69704;BMP280;56967;43.538;-5.646;2023-04-25T02:15:30;99833.84;;;20.14
69704;BMP280;56967;43.538;-5.646;2023-04-25T02:17:56;99869.06;;;20.02
69704;BMP280;56967;43.538;-5.646;2023-04-25T02:20:22;99895.47;;;20.12
69704;BMP280;56967;43.538;-5.646;2023-04-25T02:22:49;99866.19;;;19.85
69704;BMP280;56967;43.538;-5.646;2023-04-25T02:25:14;99766.22;;;19.83
69704;BMP280;56967;43.538;-5.646;2023-04-25T02:27:42;99722.59;;;19.65
69704;BMP280;56967;43.538;-5.646;2023-04-25T02:30:08;99641.72;;;19.70
69704;BMP280;56967;43.538;-5.646;2023-04-25T02:32:34;99636.91;;;19.58
69704;BMP280;56967;43.538;-5.646;2023-04-25T02:35:00;99647.91;;;19.57
69704;BMP280;56967;43.538;-5.646;2023-04-25T02:37:32;99633.41;;;19.71
69704;BMP280;56967;43.538;-5.646;2023-04-25T02:39:58;99680.19;;;19.91
69704;BMP280;56967;43.538;-5.646;2023-04-25T02:42:24;99693.25;;;19.79
69704;BMP280;56967;43.538;-5.646;2023-04-25T02:44:50;99667.84;;;19.81
69704;BMP280;56967;43.538;-5.646;2023-04-25T02:47:15;99678.63;;;19.76
69704;BMP280;56967;43.538;-5.646;2023-04-25T02:49:41;99679.72;;;19.75
69704;BMP280;56967;43.538;-5.646;2023-04-25T02:52:07;99604.06;;;19.49
69704;BMP280;56967;43.538;-5.646;2023-04-25T02:54:34;99497.72;;;19.61
69704;BMP280;56967;43.538;-5.646;2023-04-25T02:56:59;99540.78;;;19.55
69704;BMP280;56967;43.538;-5.646;2023-04-25T02:59:26;99491.63;;;19.38
69704;BMP280;56967;43.538;-5.646;2023-04-25T03:01:55;99429.66;;;19.64
69704;BMP280;56967;43.538;-5.646;2023-04-25T03:04:20;99486.97;;;19.52
69704;BMP280;56967;43.538;-5.646;2023-04-25T03:06:49;99505.06;;;19.56
69704;BMP280;56967;43.538;-5.646;2023-04-25T03:09:15;99544.31;;;19.64
69704;BMP280;56967;43.538;-5.646;2023-04-25T03:11:40;99508.59;;;19.42
69704;BMP280;56967;43.538;-5.646;2023-04-25T03:14:06;99498.19;;;19.63
69704;BMP280;56967;43.538;-5.646;2023-04-25T03:16:32;99542.63;;;19.76
69704;BMP280;56967;43.538;-5.646;2023-04-25T03:18:57;99588.22;;;19.88
69704;BMP280;56967;43.538;-5.646;2023-04-25T03:21:23;99633.84;;;19.87
69704;BMP280;56967;43.538;-5.646;2023-04-25T03:23:48;99714.06;;;19.41
69704;BMP280;56967;43.538;-5.646;2023-04-25T03:26:14;99003.50;;;17.89
69704;BMP280;56967;43.538;-5.646;2023-04-25T03:28:39;98486.75;;;17.78
69704;BMP280;56967;43.538;-5.646;2023-04-25T03:31:05;98167.56;;;17.80
69704;BMP280;56967;43.538;-5.646;2023-04-25T03:33:31;98000.56;;;17.78
69704;BMP280;56967;43.538;-5.646;2023-04-25T03:35:57;97888.44;;;17.73
69704;BMP280;56967;43.538;-5.646;2023-04-25T03:38:22;97781.41;;;17.72
69704;BMP280;56967;43.538;-5.646;2023-04-25T03:40:48;97688.53;;;17.76
69704;BMP280;56967;43.538;-5.646;2023-04-25T03:43:13;97643.28;;;17.72
69704;BMP280;56967;43.538;-5.646;2023-04-25T03:45:39;97522.75;;;17.77
69704;BMP280;56967;43.538;-5.646;2023-04-25T03:48:04;97447.44;;;17.85
69704;BMP280;56967;43.538;-5.646;2023-04-25T03:50:30;97470.31;;;17.89
69704;BMP280;56967;43.538;-5.646;2023-04-25T03:52:55;97506.50;;;17.94
69704;BMP280;56967;43.538;-5.646;2023-04-25T03:55:21;97547.91;;;17.95
69704;BMP280;56967;43.538;-5.646;2023-04-25T03:57:46;97550.63;;;17.98
69704;BMP280;56967;43.538;-5.646;2023-04-25T04:00:12;97694.66;;;18.04
69704;BMP280;56967;43.538;-5.646;2023-04-25T04:02:38;97711.47;;;18.08
69704;BMP280;56967;43.538;-5.646;2023-04-25T04:05:04;97688.16;;;17.89
69704;BMP280;56967;43.538;-5.646;2023-04-25T04:07:31;97640.25;;;17.86
69704;BMP280;56967;43.538;-5.646;2023-04-25T04:09:58;97620.31;;;17.92
69704;BMP280;56967;43.538;-5.646;2023-04-25T04:12:24;97593.31;;;17.90
69704;BMP280;56967;43.538;-5.646;2023-04-25T04:14:49;97600.56;;;17.93
69704;BMP280;56967;43.538;-5.646;2023-04-25T04:17:15;97616.28;;;17.98
69704;BMP280;56967;43.538;-5.646;2023-04-25T04:19:41;97651.97;;;17.97
69704;BMP280;56967;43.538;-5.646;2023-04-25T04:22:06;97637.59;;;17.86
69704;BMP280;56967;43.538;-5.646;2023-04-25T04:24:32;97557.91;;;17.86
69704;BMP280;56967;43.538;-5.646;2023-04-25T04:26:58;97589.72;;;18.92
69704;BMP280;56967;43.538;-5.646;2023-04-25T04:29:24;98374.31;;;19.43
69704;BMP280;56967;43.538;-5.646;2023-04-25T04:31:50;98707.34;;;19.34
69704;BMP280;56967;43.538;-5.646;2023-04-25T04:34:17;98400.50;;;19.08
69704;BMP280;56967;43.538;-5.646;2023-04-25T04:36:44;98639.41;;;19.28
69704;BMP280;56967;43.538;-5.646;2023-04-25T04:39:11;98666.63;;;19.05
69704;BMP280;56967;43.538;-5.646;2023-04-25T04:41:37;98585.97;;;19.04
69704;BMP280;56967;43.538;-5.646;2023-04-25T04:44:03;98576.75;;;19.02
69704;BMP280;56967;43.538;-5.646;2023-04-25T04:46:29;98594.53;;;18.89
69704;BMP280;56967;43.538;-5.646;2023-04-25T04:48:55;98448.31;;;18.63
69704;BMP280;56967;43.538;-5.646;2023-04-25T04:51:21;98339.00;;;18.56
69704;BMP280;56967;43.538;-5.646;2023-04-25T04:53:47;98219.16;;;18.53
69704;BMP280;56967;43.538;-5.646;2023-04-25T04:56:13;98087.25;;;18.40
69704;BMP280;56967;43.538;-5.646;2023-04-25T04:58:38;98038.63;;;18.39
69704;BMP280;56967;43.538;-5.646;2023-04-25T05:01:04;97985.44;;;18.39
69704;BMP280;56967;43.538;-5.646;2023-04-25T05:03:31;98015.78;;;18.50
69704;BMP280;56967;43.538;-5.646;2023-04-25T05:05:57;98076.72;;;18.67
69704;BMP280;56967;43.538;-5.646;2023-04-25T05:08:28;98166.53;;;18.70
69704;BMP280;56967;43.538;-5.646;2023-04-25T05:10:58;98230.19;;;18.75
69704;BMP280;56967;43.538;-5.646;2023-04-25T05:13:24;98299.81;;;18.77
69704;BMP280;56967;43.538;-5.646;2023-04-25T05:15:50;98329.97;;;18.69
69704;BMP280;56967;43.538;-5.646;2023-04-25T05:18:18;98364.91;;;18.80
69704;BMP280;56967;43.538;-5.646;2023-04-25T05:20:46;98391.91;;;18.91
69704;BMP280;56967;43.538;-5.646;2023-04-25T05:23:12;98466.91;;;18.93
69704;BMP280;56967;43.538;-5.646;2023-04-25T05:25:40;98470.53;;;18.88
69704;BMP280;56967;43.538;-5.646;2023-04-25T05:28:05;98497.19;;;19.00
69704;BMP280;56967;43.538;-5.646;2023-04-25T05:30:31;98558.31;;;18.97
69704;BMP280;56967;43.538;-5.646;2023-04-25T05:32:57;98601.94;;;19.04
69704;BMP280;56967;43.538;-5.646;2023-04-25T05:35:22;98640.34;;;18.95
69704;BMP280;56967;43.538;-5.646;2023-04-25T05:37:48;98677.31;;;18.96
69704;BMP280;56967;43.538;-5.646;2023-04-25T05:40:14;98681.13;;;18.87
69704;BMP280;56967;43.538;-5.646;2023-04-25T05:42:42;98515.59;;;18.64
69704;BMP280;56967;43.538;-5.646;2023-04-25T05:45:11;98444.69;;;18.89
69704;BMP280;56967;43.538;-5.646;2023-04-25T05:47:39;98468.03;;;19.04
69704;BMP280;56967;43.538;-5.646;2023-04-25T05:50:06;98545.91;;;19.01
69704;BMP280;56967;43.538;-5.646;2023-04-25T05:52:39;98578.09;;;19.08
69704;BMP280;56967;43.538;-5.646;2023-04-25T05:55:05;98692.25;;;19.18
69704;BMP280;56967;43.538;-5.646;2023-04-25T05:57:31;98797.22;;;19.55
69704;BMP280;56967;43.538;-5.646;2023-04-25T05:59:57;98888.94;;;19.83
69704;BMP280;56967;43.538;-5.646;2023-04-25T06:02:22;99042.19;;;20.23
69704;BMP280;56967;43.538;-5.646;2023-04-25T06:04:50;99186.00;;;19.90
69704;BMP280;56967;43.538;-5.646;2023-04-25T06:07:16;99088.75;;;19.62
69704;BMP280;56967;43.538;-5.646;2023-04-25T06:09:41;99058.16;;;19.85
69704;BMP280;56967;43.538;-5.646;2023-04-25T06:12:07;99122.00;;;19.82
69704;BMP280;56967;43.538;-5.646;2023-04-25T06:14:33;99161.03;;;20.12
69704;BMP280;56967;43.538;-5.646;2023-04-25T06:16:59;99302.06;;;20.39
69704;BMP280;56967;43.538;-5.646;2023-04-25T06:19:25;99415.94;;;20.61
69704;BMP280;56967;43.538;-5.646;2023-04-25T06:21:50;99485.97;;;20.49
69704;BMP280;56967;43.538;-5.646;2023-04-25T06:24:16;99533.84;;;20.37
69704;BMP280;56967;43.538;-5.646;2023-04-25T06:26:41;99587.13;;;20.68
69704;BMP280;56967;43.538;-5.646;2023-04-25T06:29:06;99752.25;;;21.05
69704;BMP280;56967;43.538;-5.646;2023-04-25T06:31:32;99834.34;;;21.13
69704;BMP280;56967;43.538;-5.646;2023-04-25T06:33:58;99930.50;;;21.57
69704;BMP280;56967;43.538;-5.646;2023-04-25T06:36:24;100307.69;;;22.99
69704;BMP280;56967;43.538;-5.646;2023-04-25T06:38:51;100356.72;;;22.46
69704;BMP280;56967;43.538;-5.646;2023-04-25T06:41:17;100340.03;;;22.27
69704;BMP280;56967;43.538;-5.646;2023-04-25T06:43:44;100360.50;;;22.23
69704;BMP280;56967;43.538;-5.646;2023-04-25T06:46:09;100359.03;;;22.17
69704;BMP280;56967;43.538;-5.646;2023-04-25T06:48:35;100373.34;;;22.35
69704;BMP280;56967;43.538;-5.646;2023-04-25T06:51:00;100422.91;;;22.68
69704;BMP280;56967;43.538;-5.646;2023-04-25T06:53:26;100491.50;;;22.69
69704;BMP280;56967;43.538;-5.646;2023-04-25T06:55:51;100526.84;;;23.15
69704;BMP280;56967;43.538;-5.646;2023-04-25T06:58:17;100578.25;;;23.53
69704;BMP280;56967;43.538;-5.646;2023-04-25T07:00:43;100703.34;;;24.15
69704;BMP280;56967;43.538;-5.646;2023-04-25T07:03:08;100775.28;;;24.49
69704;BMP280;56967;43.538;-5.646;2023-04-25T07:05:35;100791.06;;;24.20
69704;BMP280;56967;43.538;-5.646;2023-04-25T07:08:00;100781.56;;;24.14
69704;BMP280;56967;43.538;-5.646;2023-04-25T07:10:26;100779.09;;;23.82
69704;BMP280;56967;43.538;-5.646;2023-04-25T07:12:52;100732.34;;;23.38
69704;BMP280;56967;43.538;-5.646;2023-04-25T07:15:17;100696.16;;;23.36
69704;BMP280;56967;43.538;-5.646;2023-04-25T07:17:43;100592.41;;;22.87
69704;BMP280;56967;43.538;-5.646;2023-04-25T07:20:09;100406.72;;;22.15
69704;BMP280;56967;43.538;-5.646;2023-04-25T07:22:35;100352.94;;;21.90
69704;BMP280;56967;43.538;-5.646;2023-04-25T07:25:00;100385.41;;;22.10
69704;BMP280;56967;43.538;-5.646;2023-04-25T07:27:26;100406.06;;;21.96
69704;BMP280;56967;43.538;-5.646;2023-04-25T07:29:51;100331.19;;;22.05
69704;BMP280;56967;43.538;-5.646;2023-04-25T07:32:17;100406.47;;;22.17
69704;BMP280;56967;43.538;-5.646;2023-04-25T07:34:43;100412.41;;;22.14
69704;BMP280;56967;43.538;-5.646;2023-04-25T07:37:08;100451.66;;;22.05
69704;BMP280;56967;43.538;-5.646;2023-04-25T07:39:34;100526.78;;;22.49
69704;BMP280;56967;43.538;-5.646;2023-04-25T07:42:00;100580.47;;;22.93
69704;BMP280;56967;43.538;-5.646;2023-04-25T07:44:27;100666.88;;;23.62
69704;BMP280;56967;43.538;-5.646;2023-04-25T07:46:52;100725.66;;;24.16
69704;BMP280;56967;43.538;-5.646;2023-04-25T07:49:18;100783.63;;;23.95
69704;BMP280;56967;43.538;-5.646;2023-04-25T07:51:44;100777.63;;;24.20
69704;BMP280;56967;43.538;-5.646;2023-04-25T07:54:13;100817.53;;;24.04
69704;BMP280;56967;43.538;-5.646;2023-04-25T07:56:39;100835.94;;;24.19
69704;BMP280;56967;43.538;-5.646;2023-04-25T07:59:04;100836.72;;;24.11
69704;BMP280;56967;43.538;-5.646;2023-04-25T08:01:30;100875.53;;;24.05
69704;BMP280;56967;43.538;-5.646;2023-04-25T08:03:56;100890.97;;;24.22
69704;BMP280;56967;43.538;-5.646;2023-04-25T08:06:21;100913.47;;;24.26
69704;BMP280;56967;43.538;-5.646;2023-04-25T08:08:47;100893.41;;;23.74
69704;BMP280;56967;43.538;-5.646;2023-04-25T08:11:12;100982.91;;;24.77
69704;BMP280;56967;43.538;-5.646;2023-04-25T08:13:38;101069.34;;;26.06
69704;BMP280;56967;43.538;-5.646;2023-04-25T08:16:03;101127.94;;;26.57
69704;BMP280;56967;43.538;-5.646;2023-04-25T08:18:29;101173.13;;;25.56
69704;BMP280;56967;43.538;-5.646;2023-04-25T08:20:54;101185.09;;;27.02
69704;BMP280;56967;43.538;-5.646;2023-04-25T08:23:20;101220.34;;;27.48
69704;BMP280;56967;43.538;-5.646;2023-04-25T08:25:45;101274.34;;;27.65
69704;BMP280;56967;43.538;-5.646;2023-04-25T08:28:11;101281.38;;;28.04
69704;BMP280;56967;43.538;-5.646;2023-04-25T08:30:37;101294.25;;;28.07
69704;BMP280;56967;43.538;-5.646;2023-04-25T08:33:02;101334.34;;;30.44
69704;BMP280;56967;43.538;-5.646;2023-04-25T08:35:28;101413.84;;;33.19
69704;BMP280;56967;43.538;-5.646;2023-04-25T08:37:53;101399.50;;;30.68
69704;BMP280;56967;43.538;-5.646;2023-04-25T08:40:22;101407.59;;;29.87
69704;BMP280;56967;43.538;-5.646;2023-04-25T08:42:52;101391.31;;;27.91
69704;BMP280;56967;43.538;-5.646;2023-04-25T08:45:18;101373.78;;;26.95
69704;BMP280;56967;43.538;-5.646;2023-04-25T08:47:45;101359.41;;;26.16
69704;BMP280;56967;43.538;-5.646;2023-04-25T08:50:11;101347.75;;;26.68
69704;BMP280;56967;43.538;-5.646;2023-04-25T08:52:42;101338.88;;;25.62
69704;BMP280;56967;43.538;-5.646;2023-04-25T08:55:09;101340.56;;;24.95
69704;BMP280;56967;43.538;-5.646;2023-04-25T08:57:38;101344.13;;;26.34
69704;BMP280;56967;43.538;-5.646;2023-04-25T09:00:04;101347.44;;;25.01
69704;BMP280;56967;43.538;-5.646;2023-04-25T09:02:30;101306.69;;;25.44
69704;BMP280;56967;43.538;-5.646;2023-04-25T09:04:56;101338.81;;;26.20
69704;BMP280;56967;43.538;-5.646;2023-04-25T09:07:22;101340.38;;;26.43
69704;BMP280;56967;43.538;-5.646;2023-04-25T09:09:48;101349.28;;;26.91
69704;BMP280;56967;43.538;-5.646;2023-04-25T09:12:13;101350.06;;;25.56
69704;BMP280;56967;43.538;-5.646;2023-04-25T09:14:39;101350.91;;;26.62
69704;BMP280;56967;43.538;-5.646;2023-04-25T09:17:05;101358.53;;;28.01
69704;BMP280;56967;43.538;-5.646;2023-04-25T09:19:34;101361.72;;;27.18
69704;BMP280;56967;43.538;-5.646;2023-04-25T09:22:03;101367.63;;;28.43
69704;BMP280;56967;43.538;-5.646;2023-04-25T09:24:42;101365.06;;;28.00
69704;BMP280;56967;43.538;-5.646;2023-04-25T09:27:10;101369.22;;;27.38
69704;BMP280;56967;43.538;-5.646;2023-04-25T09:29:39;101368.88;;;29.12
69704;BMP280;56967;43.538;-5.646;2023-04-25T09:32:24;101365.19;;;26.54
69704;BMP280;56967;43.538;-5.646;2023-04-25T09:34:51;101374.50;;;26.87
69704;BMP280;56967;43.538;-5.646;2023-04-25T09:37:35;101395.34;;;28.86
69704;BMP280;56967;43.538;-5.646;2023-04-25T09:40:05;101418.47;;;27.27
69704;BMP280;56967;43.538;-5.646;2023-04-25T09:42:31;101400.53;;;28.91
69704;BMP280;56967;43.538;-5.646;2023-04-25T09:45:01;101395.13;;;31.42
69704;BMP280;56967;43.538;-5.646;2023-04-25T09:47:27;101396.66;;;30.76
69704;BMP280;56967;43.538;-5.646;2023-04-25T09:49:55;101402.88;;;28.26
69704;BMP280;56967;43.538;-5.646;2023-04-25T09:52:22;101405.34;;;29.77
69704;BMP280;56967;43.538;-5.646;2023-04-25T09:54:49;101413.06;;;29.04
69704;BMP280;56967;43.538;-5.646;2023-04-25T09:57:20;101400.38;;;28.13
69704;BMP280;56967;43.538;-5.646;2023-04-25T09:59:47;101388.78;;;27.27
69704;BMP280;56967;43.538;-5.646;2023-04-25T10:02:16;101378.53;;;25.70
69704;BMP280;56967;43.538;-5.646;2023-04-25T10:04:44;101362.38;;;25.35
69704;BMP280;56967;43.538;-5.646;2023-04-25T10:07:13;101316.41;;;23.67
69704;BMP280;56967;43.538;-5.646;2023-04-25T10:09:39;101331.31;;;24.28
69704;BMP280;56967;43.538;-5.646;2023-04-25T10:12:06;101312.47;;;23.59
69704;BMP280;56967;43.538;-5.646;2023-04-25T10:14:33;101301.88;;;23.30
69704;BMP280;56967;43.538;-5.646;2023-04-25T10:16:58;101314.31;;;23.82
69704;BMP280;56967;43.538;-5.646;2023-04-25T10:19:25;101305.69;;;24.17
69704;BMP280;56967;43.538;-5.646;2023-04-25T10:22:17;101327.91;;;24.23
69704;BMP280;56967;43.538;-5.646;2023-04-25T10:24:44;101300.34;;;23.24
69704;BMP280;56967;43.538;-5.646;2023-04-25T10:27:12;101305.13;;;22.56
69704;BMP280;56967;43.538;-5.646;2023-04-25T10:29:38;101267.69;;;22.46
69704;BMP280;56967;43.538;-5.646;2023-04-25T10:32:04;101229.34;;;21.94
69704;BMP280;56967;43.538;-5.646;2023-04-25T10:34:40;101254.97;;;22.62
69704;BMP280;56967;43.538;-5.646;2023-04-25T10:37:09;101275.91;;;23.82
69704;BMP280;56967;43.538;-5.646;2023-04-25T10:39:35;101304.78;;;24.68
69704;BMP280;56967;43.538;-5.646;2023-04-25T10:42:02;101317.84;;;25.15
69704;BMP280;56967;43.538;-5.646;2023-04-25T10:44:29;101325.59;;;26.80
69704;BMP280;56967;43.538;-5.646;2023-04-25T10:46:55;101323.47;;;26.29
69704;BMP280;56967;43.538;-5.646;2023-04-25T10:52:26;101338.00;;;26.81
69704;BMP280;56967;43.538;-5.646;2023-04-25T10:54:57;101333.94;;;27.18
69704;BMP280;56967;43.538;-5.646;2023-04-25T10:57:44;101327.91;;;27.38
69704;BMP280;56967;43.538;-5.646;2023-04-25T11:00:17;101326.03;;;26.73
69704;BMP280;56967;43.538;-5.646;2023-04-25T11:02:48;101329.34;;;27.27
69704;BMP280;56967;43.538;-5.646;2023-04-25T11:05:36;101345.06;;;27.33
69704;BMP280;56967;43.538;-5.646;2023-04-25T11:08:02;101350.31;;;27.47
69704;BMP280;56967;43.538;-5.646;2023-04-25T11:10:32;101348.09;;;27.40
69704;BMP280;56967;43.538;-5.646;2023-04-25T11:13:00;101340.47;;;25.50
69704;BMP280;56967;43.538;-5.646;2023-04-25T11:15:26;101337.34;;;26.14
69704;BMP280;56967;43.538;-5.646;2023-04-25T11:17:53;101349.09;;;26.18
69704;BMP280;56967;43.538;-5.646;2023-04-25T11:20:18;101329.25;;;25.70
69704;BMP280;56967;43.538;-5.646;2023-04-25T11:22:45;101334.78;;;24.61
69704;BMP280;56967;43.538;-5.646;2023-04-25T11:25:13;101335.97;;;24.82
69704;BMP280;56967;43.538;-5.646;2023-04-25T11:27:59;101325.31;;;24.64
69704;BMP280;56967;43.538;-5.646;2023-04-25T11:30:26;101330.16;;;23.84
69704;BMP280;56967;43.538;-5.646;2023-04-25T11:32:52;101307.44;;;23.15
69704;BMP280;56967;43.538;-5.646;2023-04-25T11:35:19;101318.88;;;24.33
69704;BMP280;56967;43.538;-5.646;2023-04-25T11:37:45;101319.00;;;25.23
69704;BMP280;56967;43.538;-5.646;2023-04-25T11:40:11;101315.31;;;23.86
69704;BMP280;56967;43.538;-5.646;2023-04-25T11:42:46;101322.31;;;24.19
69704;BMP280;56967;43.538;-5.646;2023-04-25T11:45:13;101319.03;;;24.95
69704;BMP280;56967;43.538;-5.646;2023-04-25T11:47:39;101326.69;;;24.15
69704;BMP280;56967;43.538;-5.646;2023-04-25T11:50:06;101318.56;;;24.02
69704;BMP280;56967;43.538;-5.646;2023-04-25T11:52:39;101324.81;;;24.62
69704;BMP280;56967;43.538;-5.646;2023-04-25T11:55:09;101305.81;;;24.85
69704;BMP280;56967;43.538;-5.646;2023-04-25T11:57:38;101307.50;;;23.90
69704;BMP280;56967;43.538;-5.646;2023-04-25T12:02:43;101284.16;;;23.11
69704;BMP280;56967;43.538;-5.646;2023-04-25T12:05:10;101299.72;;;24.20
69704;BMP280;56967;43.538;-5.646;2023-04-25T12:07:36;101309.66;;;24.66
69704;BMP280;56967;43.538;-5.646;2023-04-25T12:10:07;101300.25;;;24.04
69704;BMP280;56967;43.538;-5.646;2023-04-25T12:12:34;101308.41;;;23.99
69704;BMP280;56967;43.538;-5.646;2023-04-25T12:17:36;101325.75;;;24.06
69704;BMP280;56967;43.538;-5.646;2023-04-25T12:20:11;101307.09;;;24.74
69704;BMP280;56967;43.538;-5.646;2023-04-25T12:22:37;101307.47;;;25.58
69704;BMP280;56967;43.538;-5.646;2023-04-25T12:25:04;101302.25;;;25.39
69704;BMP280;56967;43.538;-5.646;2023-04-25T12:27:31;101304.78;;;25.58
69704;BMP280;56967;43.538;-5.646;2023-04-25T12:29:57;101308.31;;;26.11
69704;BMP280;56967;43.538;-5.646;2023-04-25T12:32:24;101308.38;;;25.53
69704;BMP280;56967;43.538;-5.646;2023-04-25T12:34:49;101303.34;;;25.38
69704;BMP280;56967;43.538;-5.646;2023-04-25T12:37:15;101307.41;;;25.71
69704;BMP280;56967;43.538;-5.646;2023-04-25T12:39:41;101328.69;;;25.10
69704;BMP280;56967;43.538;-5.646;2023-04-25T12:42:07;101309.25;;;25.84
69704;BMP280;56967;43.538;-5.646;2023-04-25T12:44:38;101306.66;;;25.79
69704;BMP280;56967;43.538;-5.646;2023-04-25T12:47:04;101303.09;;;26.14
69704;BMP280;56967;43.538;-5.646;2023-04-25T12:49:31;101298.22;;;25.94
69704;BMP280;56967;43.538;-5.646;2023-04-25T12:51:57;101297.31;;;25.99
69704;BMP280;56967;43.538;-5.646;2023-04-25T12:54:22;101298.09;;;25.77
69704;BMP280;56967;43.538;-5.646;2023-04-25T12:56:49;101308.69;;;25.52
69704;BMP280;56967;43.538;-5.646;2023-04-25T12:59:15;101304.94;;;25.83
69704;BMP280;56967;43.538;-5.646;2023-04-25T13:01:41;101310.06;;;26.46
69704;BMP280;56967;43.538;-5.646;2023-04-25T13:04:06;101311.25;;;26.01
69704;BMP280;56967;43.538;-5.646;2023-04-25T13:06:32;101301.66;;;26.08
69704;BMP280;56967;43.538;-5.646;2023-04-25T13:08:57;101314.53;;;26.51
69704;BMP280;56967;43.538;-5.646;2023-04-25T13:11:23;101323.38;;;26.43
69704;BMP280;56967;43.538;-5.646;2023-04-25T13:13:49;101317.50;;;26.10
69704;BMP280;56967;43.538;-5.646;2023-04-25T13:16:14;101313.88;;;26.14
69704;BMP280;56967;43.538;-5.646;2023-04-25T13:18:40;101322.81;;;25.79
69704;BMP280;56967;43.538;-5.646;2023-04-25T13:21:06;101316.75;;;26.49
69704;BMP280;56967;43.538;-5.646;2023-04-25T13:23:31;101337.09;;;25.80
69704;BMP280;56967;43.538;-5.646;2023-04-25T13:25:57;101324.94;;;26.35
69704;BMP280;56967;43.538;-5.646;2023-04-25T13:28:26;101322.78;;;26.93
69704;BMP280;56967;43.538;-5.646;2023-04-25T13:30:52;101336.66;;;27.26
69704;BMP280;56967;43.538;-5.646;2023-04-25T13:33:18;101343.94;;;25.64
69704;BMP280;56967;43.538;-5.646;2023-04-25T13:35:44;101338.00;;;26.89
69704;BMP280;56967;43.538;-5.646;2023-04-25T13:38:12;101340.00;;;26.67
69704;BMP280;56967;43.538;-5.646;2023-04-25T13:40:38;101333.19;;;26.69
69704;BMP280;56967;43.538;-5.646;2023-04-25T13:43:04;101330.00;;;26.06
69704;BMP280;56967;43.538;-5.646;2023-04-25T13:45:31;101340.59;;;26.64
69704;BMP280;56967;43.538;-5.646;2023-04-25T13:47:57;101332.16;;;27.04
69704;BMP280;56967;43.538;-5.646;2023-04-25T13:50:23;101338.16;;;26.93
69704;BMP280;56967;43.538;-5.646;2023-04-25T13:52:48;101347.63;;;27.81
69704;BMP280;56967;43.538;-5.646;2023-04-25T13:55:14;101351.09;;;27.73